Time;durP1;ratioP1;P1;durP2;ratioP2;P2;SDS_P1;SDS_P2;PMS_P1;PMS_P2;Temp;Humidity;BMP_temperature;BMP_pressure;BME280_temperature;BME280_humidity;BME280_pressure;Samples;Min_cycle;Max_cycle;Signal;HPM_P1;HPM_P2
2021/08/08 00:00:12;;;;;;;5.18;2.75;;;538.50;2099.20;;;;;;5156658;27;20015;-77
2021/08/08 00:02:38;;;;;;;5.22;2.60;;;563.20;2099.20;;;;;;5138425;27;20030;-76
2021/08/08 00:05:13;;;;;;;6.05;2.50;;;538.50;2099.20;;;;;;5138254;27;20109;-77
2021/08/08 00:07:40;;;;;;;7.25;2.25;;;538.50;2073.60;;;;;;5154275;27;20071;-74
2021/08/08 00:10:08;;;;;;;4.75;2.55;;;563.20;2124.80;;;;;;5149926;27;20095;-73
2021/08/08 00:12:34;;;;;;;6.25;2.67;;;563.20;2124.80;;;;;;5152877;27;20023;-75
2021/08/08 00:15:00;;;;;;;5.55;2.38;;;563.30;2124.80;;;;;;5156326;27;20429;-80
2021/08/08 00:17:25;;;;;;;9.00;2.45;;;563.30;2124.80;;;;;;5134985;27;20434;-75
2021/08/08 00:19:51;;;;;;;4.25;2.80;;;563.20;2124.80;;;;;;5140110;27;20062;-78
2021/08/08 00:22:17;;;;;;;5.88;2.42;;;563.20;2124.80;;;;;;5154925;27;20096;-75
2021/08/08 00:24:42;;;;;;;3.42;2.20;;;563.30;2124.80;;;;;;5156462;27;20030;-75
2021/08/08 00:27:08;;;;;;;6.43;2.58;;;563.20;2124.80;;;;;;5156274;27;20019;-78
2021/08/08 00:29:34;;;;;;;4.13;2.70;;;538.50;2124.80;;;;;;5137200;27;20487;-75
2021/08/08 00:32:00;;;;;;;4.95;2.67;;;538.50;2124.80;;;;;;5156071;27;20061;-75
2021/08/08 00:34:25;;;;;;;6.47;2.92;;;538.50;2150.40;;;;;;5136855;27;20118;-75
2021/08/08 00:36:51;;;;;;;6.63;2.35;;;538.50;2150.40;;;;;;5155247;27;20022;-75
2021/08/08 00:39:17;;;;;;;4.88;2.92;;;538.20;2176.00;;;;;;5155755;27;20027;-76
2021/08/08 00:41:43;;;;;;;8.35;2.60;;;538.20;2176.00;;;;;;5137407;27;20041;-77
2021/08/08 00:44:09;;;;;;;7.35;2.80;;;538.00;2201.60;;;;;;5155596;27;20062;-76
2021/08/08 00:46:35;;;;;;;5.47;3.10;;;538.00;2201.60;;;;;;5137067;27;20075;-76
2021/08/08 00:49:01;;;;;;;7.03;3.17;;;537.70;2227.20;;;;;;5155827;27;20011;-75
2021/08/08 00:51:32;;;;;;;5.45;3.13;;;537.60;2252.80;;;;;;5155686;27;20023;-78
2021/08/08 00:53:59;;;;;;;6.00;3.17;;;512.90;2227.20;;;;;;5134678;27;20403;-78
2021/08/08 00:56:25;;;;;;;4.63;2.50;;;512.90;2252.80;;;;;;5156098;27;20042;-78
2021/08/08 00:58:51;;;;;;;3.28;2.22;;;512.50;2278.40;;;;;;5156100;27;20025;-76
2021/08/08 01:01:18;;;;;;;3.58;2.40;;;512.60;2278.40;;;;;;5156030;27;20027;-76
2021/08/08 01:03:44;;;;;;;7.70;2.92;;;512.60;2278.40;;;;;;5137444;27;20548;-75
2021/08/08 01:06:18;;;;;;;5.93;3.17;;;512.50;2304.00;;;;;;5137502;27;20107;-75
2021/08/08 01:08:51;;;;;;;5.38;2.55;;;512.40;2304.00;;;;;;5135177;27;20069;-75
2021/08/08 01:11:19;;;;;;;5.20;3.22;;;512.40;2304.00;;;;;;5137121;27;20547;-77
2021/08/08 01:13:47;;;;;;;5.93;2.55;;;512.50;2304.00;;;;;;5136947;27;20030;-76
2021/08/08 01:16:15;;;;;;;4.25;2.63;;;512.40;2304.00;;;;;;5155583;27;20066;-76
2021/08/08 01:18:43;;;;;;;5.45;3.00;;;512.40;2304.00;;;;;;5153206;27;20019;-75
2021/08/08 01:21:09;;;;;;;6.90;2.85;;;512.40;2304.00;;;;;;5155715;27;20446;-75
2021/08/08 01:23:36;;;;;;;5.47;2.85;;;512.40;2304.00;;;;;;5136711;27;20038;-76
2021/08/08 01:26:02;;;;;;;5.45;3.13;;;512.30;2329.60;;;;;;5155641;27;20015;-76
2021/08/08 01:28:28;;;;;;;3.95;2.88;;;512.20;2329.60;;;;;;5155448;27;20547;-77
2021/08/08 01:30:54;;;;;;;7.93;2.85;;;512.20;2329.60;;;;;;5155520;27;20105;-77
2021/08/08 01:33:20;;;;;;;6.55;3.20;;;512.20;2329.60;;;;;;5155367;27;20019;-76
2021/08/08 01:35:46;;;;;;;6.22;2.90;;;512.20;2329.60;;;;;;5154723;27;20015;-77
2021/08/08 01:38:12;;;;;;;6.05;3.30;;;512.20;2329.60;;;;;;5155677;27;20042;-78
2021/08/08 01:40:48;;;;;;;6.13;3.10;;;512.40;2329.60;;;;;;5136335;27;20467;-75
2021/08/08 01:43:16;;;;;;;;;;;512.30;2329.60;;;;;;5136768;27;20429;-75
2021/08/08 01:45:45;;;;;;;5.65;2.92;;;512.40;2329.60;;;;;;5152702;27;19911;-75
2021/08/08 01:48:12;;;;;;;4.28;3.03;;;512.40;2329.60;;;;;;5155145;27;20097;-77
2021/08/08 01:50:38;;;;;;;4.25;2.42;;;512.20;2329.60;;;;;;5155038;27;20539;-77
2021/08/08 01:53:04;;;;;;;4.68;3.03;;;512.40;2329.60;;;;;;5136166;27;20026;-76
2021/08/08 01:55:30;;;;;;;6.38;3.22;;;512.40;2329.60;;;;;;5154703;27;20055;-75
2021/08/08 01:57:58;;;;;;;4.28;2.78;;;512.50;2304.00;;;;;;5154919;27;20083;-77
2021/08/08 02:00:27;;;;;;;7.00;3.60;;;512.50;2329.60;;;;;;5150811;27;20023;-75
2021/08/08 02:02:55;;;;;;;6.05;3.00;;;512.50;2329.60;;;;;;5145019;27;20023;-75
2021/08/08 02:05:22;;;;;;;5.00;2.97;;;512.40;2329.60;;;;;;5135647;27;20026;-77
2021/08/08 02:07:48;;;;;;;5.32;3.25;;;512.30;2355.20;;;;;;5144065;27;20015;-75
2021/08/08 02:10:15;;;;;;;8.35;3.65;;;512.40;2329.60;;;;;;5136488;27;20033;-78
2021/08/08 02:12:40;;;;;;;6.15;3.15;;;512.20;2355.20;;;;;;5136325;27;20106;-77
2021/08/08 02:15:09;;;;;;;6.18;3.17;;;512.30;2355.20;;;;;;5135744;27;20102;-78
2021/08/08 02:17:38;;;;;;;4.72;3.13;;;512.30;2355.20;;;;;;5154209;27;20058;-76
2021/08/08 02:20:06;;;;;;;5.30;3.10;;;512.30;2329.60;;;;;;5152001;27;20014;-76
2021/08/08 02:22:32;;;;;;;11.52;3.58;;;512.40;2329.60;;;;;;5132379;27;20088;-75
2021/08/08 02:24:58;;;;;;;4.68;2.92;;;512.50;2304.00;;;;;;5132114;27;20380;-76
2021/08/08 02:27:23;;;;;;;5.18;2.90;;;512.60;2304.00;;;;;;5133752;27;20047;-75
2021/08/08 02:29:50;;;;;;;5.40;3.40;;;512.70;2304.00;;;;;;5132665;27;20435;-78
2021/08/08 02:32:15;;;;;;;5.35;3.10;;;512.80;2278.40;;;;;;5132340;27;20021;-77
2021/08/08 02:34:41;;;;;;;10.02;3.22;;;512.80;2278.40;;;;;;5125602;27;20476;-79
2021/08/08 02:37:08;;;;;;;6.07;3.65;;;512.90;2278.40;;;;;;5130329;27;20026;-76
2021/08/08 02:39:34;;;;;;;7.57;3.22;;;512.80;2278.40;;;;;;5128407;27;20015;-79
2021/08/08 02:41:59;;;;;;;6.88;3.47;;;512.90;2304.00;;;;;;5128634;27;20117;-76
2021/08/08 02:44:25;;;;;;;8.50;3.60;;;512.90;2278.40;;;;;;5127620;27;20472;-76
2021/08/08 02:46:51;;;;;;;7.70;3.30;;;512.90;2304.00;;;;;;5110105;27;20369;-76
2021/08/08 02:49:17;;;;;;;7.95;3.38;;;512.80;2304.00;;;;;;5125912;27;20030;-75
2021/08/08 02:51:42;;;;;;;5.18;2.90;;;512.70;2304.00;;;;;;5128490;27;20019;-80
2021/08/08 02:54:10;;;;;;;5.32;2.92;;;512.80;2304.00;;;;;;5114929;28;20015;-75
2021/08/08 02:56:36;;;;;;;5.80;3.08;;;512.80;2278.40;;;;;;5130669;27;20464;-76
2021/08/08 02:59:01;;;;;;;6.65;2.60;;;512.80;2278.40;;;;;;5127932;28;20090;-79
2021/08/08 03:01:27;;;;;;;8.90;3.05;;;512.70;2278.40;;;;;;5128808;28;20027;-76
2021/08/08 03:03:53;;;;;;;5.40;2.90;;;512.80;2278.40;;;;;;5130120;28;20019;-75
2021/08/08 03:06:18;;;;;;;4.85;3.15;;;512.80;2278.40;;;;;;5125392;28;20023;-76
2021/08/08 03:08:44;;;;;;;4.80;2.70;;;512.70;2278.40;;;;;;5130496;28;20477;-75
2021/08/08 03:11:11;;;;;;;4.35;2.63;;;512.80;2278.40;;;;;;5109513;28;20023;-79
2021/08/08 03:13:38;;;;;;;6.50;2.80;;;512.80;2278.40;;;;;;5132869;27;20166;-75
2021/08/08 03:16:04;;;;;;;4.70;2.55;;;512.80;2278.40;;;;;;5130726;27;20395;-80
2021/08/08 03:18:30;;;;;;;4.78;2.60;;;512.80;2278.40;;;;;;5135008;27;20086;-76
2021/08/08 03:20:56;;;;;;;4.43;2.45;;;512.80;2278.40;;;;;;5133062;28;20019;-77
2021/08/08 03:23:22;;;;;;;4.38;2.42;;;512.80;2278.40;;;;;;5119655;28;20048;-76
2021/08/08 03:25:48;;;;;;;7.05;2.67;;;512.90;2252.80;;;;;;5112347;28;20020;-80
2021/08/08 03:28:13;;;;;;;4.55;2.50;;;512.90;2252.80;;;;;;5101658;28;20095;-75
2021/08/08 03:30:39;;;;;;;3.45;1.88;;;537.60;2278.40;;;;;;5094379;28;20028;-75
2021/08/08 03:33:05;;;;;;;4.28;2.70;;;537.60;2278.40;;;;;;5094053;28;20461;-76
2021/08/08 03:35:31;;;;;;;5.63;2.78;;;537.60;2278.40;;;;;;5112344;28;20051;-75
2021/08/08 03:37:56;;;;;;;4.40;2.50;;;537.60;2278.40;;;;;;5101986;28;20028;-77
2021/08/08 03:40:22;;;;;;;8.23;2.72;;;512.90;2252.80;;;;;;5108832;28;20544;-79
2021/08/08 03:42:48;;;;;;;5.40;2.40;;;512.90;2252.80;;;;;;5112258;28;20024;-79
2021/08/08 03:45:14;;;;;;;4.57;2.30;;;512.90;2252.80;;;;;;5112216;28;20023;-76
2021/08/08 03:47:40;;;;;;;9.65;2.60;;;537.60;2252.80;;;;;;5096506;28;20023;-75
2021/08/08 03:50:07;;;;;;;5.07;2.42;;;537.70;2278.40;;;;;;5112276;28;20024;-75
2021/08/08 03:52:33;;;;;;;5.55;2.67;;;537.60;2252.80;;;;;;5111871;28;20154;-76
2021/08/08 03:54:59;;;;;;;5.55;2.22;;;537.60;2252.80;;;;;;5093770;28;20107;-76
2021/08/08 03:57:24;;;;;;;7.50;3.10;;;537.70;2252.80;;;;;;5108110;28;20057;-75
2021/08/08 03:59:50;;;;;;;7.00;3.20;;;537.70;2252.80;;;;;;5112351;28;20457;-76
2021/08/08 04:02:16;;;;;;;9.13;2.42;;;537.70;2227.20;;;;;;5097598;28;20024;-79
2021/08/08 04:04:42;;;;;;;5.72;2.45;;;537.70;2252.80;;;;;;5112969;28;20401;-78
2021/08/08 04:07:08;;;;;;;7.22;2.40;;;537.80;2252.80;;;;;;5090639;28;20032;-76
2021/08/08 04:09:33;;;;;;;6.43;2.90;;;537.80;2252.80;;;;;;5098270;28;20108;-78
2021/08/08 04:11:59;;;;;;;5.30;2.70;;;537.90;2252.80;;;;;;5112855;28;20019;-78
2021/08/08 04:14:25;;;;;;;4.25;2.70;;;537.90;2252.80;;;;;;5115493;28;20024;-78
2021/08/08 04:16:50;;;;;;;3.95;2.33;;;537.90;2252.80;;;;;;5117990;27;20554;-77
2021/08/08 04:19:16;;;;;;;4.22;2.80;;;537.90;2252.80;;;;;;5097261;28;20027;-75
2021/08/08 04:21:42;;;;;;;4.65;2.15;;;538.00;2252.80;;;;;;5115157;28;20077;-77
2021/08/08 04:24:08;;;;;;;7.72;2.83;;;538.10;2227.20;;;;;;5116422;27;20088;-78
2021/08/08 04:26:33;;;;;;;4.13;2.30;;;538.10;2252.80;;;;;;5136003;27;20034;-77
2021/08/08 04:28:59;;;;;;;5.10;3.08;;;538.20;2252.80;;;;;;5135929;27;20472;-77
2021/08/08 04:31:25;;;;;;;3.67;2.22;;;538.20;2227.20;;;;;;5117393;27;20102;-78
2021/08/08 04:33:50;;;;;;;4.70;2.72;;;538.30;2227.20;;;;;;5117521;27;20087;-78
2021/08/08 04:36:16;;;;;;;5.85;2.70;;;538.30;2227.20;;;;;;5117354;27;20031;-78
2021/08/08 04:38:42;;;;;;;5.05;2.55;;;538.30;2227.20;;;;;;5117550;27;20023;-77
2021/08/08 04:41:07;;;;;;;4.18;2.30;;;538.40;2201.60;;;;;;5135676;27;20042;-77
2021/08/08 04:43:33;;;;;;;5.57;3.38;;;538.40;2201.60;;;;;;5116973;27;20114;-77
2021/08/08 04:45:59;;;;;;;4.07;2.13;;;538.50;2201.60;;;;;;5117369;27;20091;-79
2021/08/08 04:48:24;;;;;;;7.07;2.70;;;538.50;2176.00;;;;;;5119982;27;20019;-79
2021/08/08 04:50:50;;;;;;;4.85;2.65;;;538.50;2201.60;;;;;;5116197;27;20073;-78
2021/08/08 04:53:18;;;;;;;4.65;2.58;;;563.20;2201.60;;;;;;5116966;27;20043;-76
2021/08/08 04:55:44;;;;;;;5.45;2.80;;;563.40;2176.00;;;;;;5134922;27;20026;-78
2021/08/08 04:58:10;;;;;;;4.10;2.80;;;563.40;2176.00;;;;;;5117081;27;20448;-78
2021/08/08 05:00:36;;;;;;;7.28;2.55;;;563.40;2176.00;;;;;;5117126;27;20073;-76
2021/08/08 05:03:03;;;;;;;5.22;3.00;;;563.50;2176.00;;;;;;5135365;27;20031;-77
2021/08/08 05:05:29;;;;;;;5.07;3.47;;;563.60;2176.00;;;;;;5132311;27;20039;-78
2021/08/08 05:07:55;;;;;;;6.90;2.75;;;563.60;2150.40;;;;;;5116440;27;20015;-78
2021/08/08 05:10:24;;;;;;;8.57;3.13;;;563.60;2150.40;;;;;;5133701;27;20026;-78
2021/08/08 05:12:50;;;;;;;7.85;3.05;;;563.70;2150.40;;;;;;5115181;27;20487;-76
2021/08/08 05:15:16;;;;;;;6.63;3.40;;;563.80;2150.40;;;;;;5133734;27;20039;-81
2021/08/08 05:17:42;;;;;;;5.38;3.15;;;563.80;2150.40;;;;;;5116646;27;20042;-78
2021/08/08 05:20:08;;;;;;;6.53;3.03;;;563.90;2124.80;;;;;;5134563;27;20011;-76
2021/08/08 05:22:34;;;;;;;5.22;3.30;;;564.10;2124.80;;;;;;5115296;27;20043;-76
2021/08/08 05:25:00;;;;;;;7.38;3.38;;;564.10;2124.80;;;;;;5116283;27;20110;-77
2021/08/08 05:27:26;;;;;;;7.82;4.28;;;564.10;2099.20;;;;;;5133836;27;20027;-77
2021/08/08 05:29:52;;;;;;;6.15;3.47;;;588.80;2099.20;;;;;;5133965;27;20019;-77
2021/08/08 05:32:17;;;;;;;9.02;3.53;;;588.90;2099.20;;;;;;5133856;27;20054;-77
2021/08/08 05:34:43;;;;;;;9.23;4.18;;;589.00;2073.60;;;;;;5116195;27;20970;-76
2021/08/08 05:37:09;;;;;;;6.50;3.67;;;589.10;2073.60;;;;;;5134254;27;20404;-78
2021/08/08 05:39:35;;;;;;;7.30;3.47;;;589.30;2048.00;;;;;;5134522;27;20081;-77
2021/08/08 05:42:00;;;;;;;7.80;3.67;;;589.30;2048.00;;;;;;5134291;27;20468;-77
2021/08/08 05:44:26;;;;;;;13.32;3.92;;;589.40;2022.40;;;;;;5133907;27;20499;-77
2021/08/08 05:46:52;;;;;;;9.57;3.67;;;589.50;2022.40;;;;;;5136885;27;20029;-78
2021/08/08 05:49:18;;;;;;;8.38;3.53;;;589.60;1996.80;;;;;;5133855;27;20102;-77
2021/08/08 05:51:43;;;;;;;9.05;3.35;;;589.70;1996.80;;;;;;5134097;27;20084;-76
2021/08/08 05:54:09;;;;;;;5.88;3.53;;;589.70;1971.20;;;;;;5131228;27;20394;-77
2021/08/08 05:56:35;;;;;;;6.80;3.63;;;614.40;1996.80;;;;;;5133923;27;20038;-77
2021/08/08 05:59:00;;;;;;;19.45;3.92;;;614.50;1996.80;;;;;;5115757;27;20027;-76
2021/08/08 06:01:26;;;;;;;10.55;4.30;;;614.60;1945.60;;;;;;5133862;27;20072;-77
2021/08/08 06:03:52;;;;;;;8.70;4.25;;;614.60;1971.20;;;;;;5115406;27;20038;-77
2021/08/08 06:06:17;;;;;;;8.23;4.45;;;614.70;1945.60;;;;;;5133917;27;20015;-76
2021/08/08 06:08:43;;;;;;;10.50;4.60;;;614.80;1920.00;;;;;;5133837;27;20436;-77
2021/08/08 06:11:09;;;;;;;9.27;4.30;;;614.90;1920.00;;;;;;5133564;27;20061;-77
2021/08/08 06:13:35;;;;;;;10.13;3.88;;;615.00;1945.60;;;;;;5133616;27;20107;-76
2021/08/08 06:16:01;;;;;;;8.95;4.72;;;615.10;1920.00;;;;;;5133780;27;20062;-77
2021/08/08 06:18:26;;;;;;;8.98;4.90;;;615.30;1945.60;;;;;;5139109;27;20106;-77
2021/08/08 06:20:52;;;;;;;9.57;4.20;;;615.30;1894.40;;;;;;5133631;27;20582;-78
2021/08/08 06:23:18;;;;;;;9.90;4.78;;;640.00;1920.00;;;;;;5133353;27;20039;-77
2021/08/08 06:25:43;;;;;;;12.77;4.78;;;640.20;1894.40;;;;;;5133432;27;20423;-76
2021/08/08 06:28:09;;;;;;;11.98;5.43;;;640.30;1868.80;;;;;;5115180;27;20023;-76
2021/08/08 06:30:35;;;;;;;11.00;5.00;;;640.40;1843.20;;;;;;5133692;27;20023;-76
2021/08/08 06:33:01;;;;;;;10.65;5.20;;;640.50;1843.20;;;;;;5133313;27;20104;-77
2021/08/08 06:35:26;;;;;;;12.65;5.90;;;640.60;1843.20;;;;;;5133010;27;20476;-78
2021/08/08 06:37:52;;;;;;;14.50;6.15;;;640.70;1843.20;;;;;;5115105;27;20031;-76
2021/08/08 06:40:18;;;;;;;14.45;6.88;;;640.80;1817.60;;;;;;5133241;27;20097;-78
2021/08/08 06:42:44;;;;;;;13.80;6.03;;;640.90;1792.00;;;;;;5133226;27;20480;-78
2021/08/08 06:45:10;;;;;;;18.05;6.40;;;665.60;1843.20;;;;;;5132775;27;20099;-77
2021/08/08 06:47:36;;;;;;;15.45;7.47;;;665.70;1817.60;;;;;;5135618;27;20023;-74
2021/08/08 06:50:02;;;;;;;15.60;6.57;;;665.90;1817.60;;;;;;5114755;27;20116;-77
2021/08/08 06:52:28;;;;;;;12.52;6.70;;;666.00;1843.20;;;;;;5114613;28;20027;-76
2021/08/08 06:54:54;;;;;;;15.98;8.18;;;666.20;1843.20;;;;;;5133201;27;20468;-75
2021/08/08 06:57:27;;;;;;;18.00;8.80;;;666.30;1817.60;;;;;;5132825;27;20025;-82
2021/08/08 06:59:53;;;;;;;19.25;9.02;;;666.50;1817.60;;;;;;5130436;28;20023;-76
2021/08/08 07:02:19;;;;;;;21.63;9.63;;;691.20;1766.40;;;;;;5132997;28;20023;-77
2021/08/08 07:04:45;;;;;;;25.67;9.82;;;691.30;1792.00;;;;;;5133035;28;20016;-76
2021/08/08 07:07:11;;;;;;;23.27;11.73;;;691.40;1817.60;;;;;;5132669;28;20020;-74
2021/08/08 07:09:36;;;;;;;27.42;12.85;;;691.40;1766.40;;;;;;5132926;28;20023;-74
2021/08/08 07:12:02;;;;;;;43.13;18.67;;;691.70;1715.20;;;;;;5123639;28;20012;-74
2021/08/08 07:14:33;;;;;;;37.60;19.27;;;691.70;1689.60;;;;;;5127319;28;20027;-76
2021/08/08 07:16:59;;;;;;;31.35;17.48;;;691.80;1689.60;;;;;;5132088;28;20039;-74
2021/08/08 07:19:24;;;;;;;40.40;18.35;;;691.90;1689.60;;;;;;5132813;28;20015;-75
2021/08/08 07:21:52;;;;;;;40.40;18.92;;;691.90;1689.60;;;;;;5132528;28;20016;-75
2021/08/08 07:24:19;;;;;;;33.67;17.70;;;692.10;1664.00;;;;;;5112328;28;20016;-78
2021/08/08 07:26:44;;;;;;;35.30;19.67;;;716.80;1715.20;;;;;;5112242;28;20034;-74
2021/08/08 07:29:10;;;;;;;38.38;18.63;;;716.90;1715.20;;;;;;5111912;28;20086;-76
2021/08/08 07:31:36;;;;;;;39.80;19.60;;;716.90;1664.00;;;;;;5112187;28;20067;-74
2021/08/08 07:34:02;;;;;;;38.55;19.35;;;717.00;1664.00;;;;;;5115254;28;20465;-74
2021/08/08 07:36:27;;;;;;;34.63;16.63;;;717.10;1664.00;;;;;;5116060;28;20084;-78
2021/08/08 07:38:53;;;;;;;35.40;16.95;;;717.20;1664.00;;;;;;5113469;28;20035;-78
2021/08/08 07:41:19;;;;;;;35.03;17.25;;;717.30;1664.00;;;;;;5115884;28;20015;-78
2021/08/08 07:43:44;;;;;;;28.88;16.65;;;717.30;1638.40;;;;;;5115676;28;20484;-77
2021/08/08 07:46:10;;;;;;;36.80;17.45;;;717.40;1689.60;;;;;;5116345;28;20020;-75
2021/08/08 07:48:36;;;;;;;35.28;16.63;;;717.70;1638.40;;;;;;5118483;27;20033;-76
2021/08/08 07:51:02;;;;;;;33.75;17.70;;;717.70;1612.80;;;;;;5115975;28;20028;-76
2021/08/08 07:53:27;;;;;;;30.25;16.35;;;717.70;1664.00;;;;;;5115518;28;20103;-75
2021/08/08 07:55:55;;;;;;;33.67;15.60;;;742.40;1664.00;;;;;;5115127;28;20102;-79
2021/08/08 07:58:21;;;;;;;30.23;14.63;;;742.50;1612.80;;;;;;5108220;28;20078;-75
2021/08/08 08:00:47;;;;;;;26.30;15.45;;;742.50;1587.20;;;;;;5106320;28;20031;-78
2021/08/08 08:03:13;;;;;;;30.55;16.00;;;742.50;1612.80;;;;;;5114458;28;20015;-78
2021/08/08 08:05:39;;;;;;;23.75;13.68;;;742.60;1638.40;;;;;;5115545;28;20046;-76
2021/08/08 08:08:05;;;;;;;26.42;12.90;;;742.70;1612.80;;;;;;5097343;28;20020;-78
2021/08/08 08:10:32;;;;;;;27.20;13.95;;;742.60;1587.20;;;;;;5115332;28;20082;-77
2021/08/08 08:12:59;;;;;;;24.15;13.07;;;742.80;1638.40;;;;;;5115676;28;20069;-77
2021/08/08 08:15:27;;;;;;;25.98;13.38;;;742.90;1612.80;;;;;;5107367;28;20023;-76
2021/08/08 08:17:52;;;;;;;26.00;13.00;;;743.00;1612.80;;;;;;5082134;28;20028;-77
2021/08/08 08:20:19;;;;;;;27.13;14.48;;;743.10;1561.60;;;;;;5087440;28;20023;-74
2021/08/08 08:22:44;;;;;;;29.52;15.25;;;743.10;1587.20;;;;;;5115138;28;20428;-75
2021/08/08 08:25:11;;;;;;;29.02;15.27;;;743.10;1587.20;;;;;;5115049;28;20028;-75
2021/08/08 08:27:38;;;;;;;34.72;17.85;;;743.30;1638.40;;;;;;5096137;28;20433;-77
2021/08/08 08:30:05;;;;;;;31.55;15.00;;;743.30;1587.20;;;;;;5096746;28;20369;-76
2021/08/08 08:32:30;;;;;;;24.40;14.95;;;768.10;1587.20;;;;;;5113590;28;20431;-75
2021/08/08 08:35:01;;;;;;;35.38;17.00;;;768.10;1561.60;;;;;;5095184;28;20019;-73
2021/08/08 08:37:27;;;;;;;33.42;16.17;;;768.10;1587.20;;;;;;5111836;28;20098;-81
2021/08/08 08:39:52;;;;;;;34.63;16.08;;;768.20;1536.00;;;;;;5114166;28;20469;-76
2021/08/08 08:42:19;;;;;;;32.22;16.33;;;768.30;1587.20;;;;;;5114466;28;20465;-80
2021/08/08 08:44:45;;;;;;;33.22;17.05;;;768.30;1536.00;;;;;;5114696;28;20481;-77
2021/08/08 08:47:14;;;;;;;32.25;16.83;;;793.70;1510.40;;;;;;5114956;27;20051;-76
2021/08/08 08:49:45;;;;;;;33.20;19.27;;;794.50;1459.20;;;;;;5096234;28;20024;-75
2021/08/08 08:52:12;;;;;;;50.40;21.63;;;;;;;;;;5114449;28;20101;-79
2021/08/08 08:54:38;;;;;;;33.17;17.55;;;845.00;1356.80;;;;;;5113597;28;20028;-79
2021/08/08 08:57:06;;;;;;;34.67;18.75;;;;;;;;;;5112498;28;20047;-73
2021/08/08 08:59:33;;;;;;;36.78;20.58;;;845.70;1331.20;;;;;;5113913;28;20016;-74
2021/08/08 09:01:58;;;;;;;33.30;19.38;;;845.40;1331.20;;;;;;5113883;28;20031;-79
2021/08/08 09:04:24;;;;;;;35.10;19.70;;;845.50;1331.20;;;;;;5113935;28;20027;-76
2021/08/08 09:06:50;;;;;;;38.95;20.83;;;870.70;1331.20;;;;;;5114109;28;20414;-77
2021/08/08 09:09:16;;;;;;;35.10;20.45;;;870.60;1280.00;;;;;;5095597;28;20039;-75
2021/08/08 09:11:43;;;;;;;42.00;21.48;;;870.90;1280.00;;;;;;5113979;28;20019;-75
2021/08/08 09:14:14;;;;;;;37.72;19.45;;;870.80;1280.00;;;;;;5113738;28;20016;-74
2021/08/08 09:16:48;;;;;;;40.22;21.10;;;870.90;1254.40;;;;;;5113532;27;20077;-74
2021/08/08 09:19:25;;;;;;;37.15;19.80;;;871.00;1280.00;;;;;;5113354;28;20031;-74
2021/08/08 09:21:52;;;;;;;40.83;22.58;;;871.20;1254.40;;;;;;5113757;27;20015;-74
2021/08/08 09:24:25;;;;;;;39.35;22.10;;;871.30;1254.40;;;;;;5113631;27;20373;-75
2021/08/08 09:27:00;;;;;;;37.08;20.80;;;896.00;1254.40;;;;;;5133070;27;20026;-77
2021/08/08 09:29:26;;;;;;;;;;;896.10;1254.40;;;;;;5133059;27;20077;-74
2021/08/08 09:31:51;;;;;;;58.97;29.70;;;896.10;1203.20;;;;;;5115473;27;19907;-77
2021/08/08 09:34:34;;;;;;;54.17;28.20;;;871.30;1228.80;;;;;;5134492;27;20055;-76
2021/08/08 09:37:04;;;;;;;59.90;28.77;;;896.80;1228.80;;;;;;5131918;27;20035;-78
2021/08/08 09:39:36;;;;;;;45.92;26.58;;;896.70;1254.40;;;;;;5134405;27;20028;-76
2021/08/08 09:42:22;;;;;;;57.53;29.50;;;896.20;1228.80;;;;;;5132130;27;20533;-80
2021/08/08 09:44:55;;;;;;;55.72;27.35;;;896.50;1228.80;;;;;;5131904;27;20015;-77
2021/08/08 09:47:23;;;;;;;48.22;27.17;;;896.90;1203.20;;;;;;5131237;27;20031;-75
2021/08/08 09:50:00;;;;;;;42.60;25.30;;;921.70;1177.60;;;;;;5134308;27;20015;-77
2021/08/08 09:52:26;;;;;;;44.10;25.05;;;921.70;1177.60;;;;;;5132354;27;20038;-78
2021/08/08 09:54:52;;;;;;;51.05;24.88;;;922.00;1203.20;;;;;;5115524;27;20022;-75
2021/08/08 09:57:18;;;;;;;38.35;22.88;;;921.70;1228.80;;;;;;5133350;27;20038;-77
2021/08/08 09:59:48;;;;;;;41.63;23.20;;;922.00;1152.00;;;;;;5115615;27;20019;-80
2021/08/08 10:02:22;;;;;;;44.95;24.10;;;921.70;1203.20;;;;;;5115484;27;20831;-77
2021/08/08 10:04:51;;;;;;;37.15;22.00;;;922.00;1203.20;;;;;;5132423;27;20459;-77
2021/08/08 10:07:17;;;;;;;38.15;21.00;;;922.00;1177.60;;;;;;5133623;27;20022;-77
2021/08/08 10:09:49;;;;;;;40.30;22.20;;;922.30;1100.80;;;;;;5122022;27;20094;-74
2021/08/08 10:12:44;;;;;;;40.80;21.42;;;947.40;1126.40;;;;;;5114243;27;20023;-75
2021/08/08 10:15:15;;;;;;;39.72;23.33;;;947.70;1126.40;;;;;;5132151;27;20026;-78
2021/08/08 10:17:43;;;;;;;57.17;35.40;;;947.30;1100.80;;;;;;5130599;27;20035;-77
2021/08/08 10:20:13;;;;;;;200.98;121.07;;;947.40;1100.80;;;;;;5115339;27;20091;-77
2021/08/08 10:22:46;;;;;;;45.40;24.73;;;947.80;1075.20;;;;;;5133320;27;20426;-77
2021/08/08 10:25:14;;;;;;;48.25;25.75;;;948.00;1100.80;;;;;;5133440;27;20373;-78
2021/08/08 10:27:40;;;;;;;45.85;23.35;;;947.60;1075.20;;;;;;5133242;27;20023;-77
2021/08/08 10:30:07;;;;;;;37.80;21.33;;;922.20;1152.00;;;;;;5133213;27;20020;-77
2021/08/08 10:32:33;;;;;;;42.40;21.50;;;922.00;1126.40;;;;;;5114230;27;20076;-79
2021/08/08 10:35:13;;;;;;;33.33;18.58;;;921.80;1177.60;;;;;;5114967;27;20050;-77
2021/08/08 10:37:40;;;;;;;43.60;21.90;;;896.80;1126.40;;;;;;5133141;27;20030;-77
2021/08/08 10:40:07;;;;;;;37.72;21.15;;;896.90;1126.40;;;;;;5106410;28;20066;-76
2021/08/08 10:42:46;;;;;;;63.42;33.95;;;896.80;1152.00;;;;;;5111501;27;20031;-78
2021/08/08 10:45:30;;;;;;;46.22;26.55;;;896.50;1126.40;;;;;;5113419;27;20015;-78
2021/08/08 10:48:11;;;;;;;41.22;23.95;;;896.90;1126.40;;;;;;5132483;27;20034;-76
2021/08/08 10:50:39;;;;;;;37.58;20.38;;;896.90;1126.40;;;;;;5132669;27;20019;-77
2021/08/08 10:53:06;;;;;;;29.17;18.85;;;896.90;1126.40;;;;;;5121634;27;20062;-77
2021/08/08 10:55:35;;;;;;;29.83;17.75;;;896.90;1126.40;;;;;;5118286;27;20032;-79
2021/08/08 10:58:11;;;;;;;26.00;14.68;;;896.90;1152.00;;;;;;5132825;27;20464;-77
2021/08/08 11:00:37;;;;;;;27.65;13.73;;;896.90;1152.00;;;;;;5131850;27;20019;-79
2021/08/08 11:03:10;;;;;;;30.70;16.20;;;896.80;1126.40;;;;;;5132714;28;20050;-79
2021/08/08 11:05:39;;;;;;;25.80;15.27;;;896.90;1152.00;;;;;;5131039;27;20408;-76
2021/08/08 11:08:07;;;;;;;30.48;15.27;;;921.60;1152.00;;;;;;5134911;27;20020;-76
2021/08/08 11:10:37;;;;;;;27.58;15.45;;;896.90;1152.00;;;;;;5137487;27;20023;-79
2021/08/08 11:13:06;;;;;;;25.08;15.80;;;921.70;1126.40;;;;;;5118681;27;20114;-75
2021/08/08 11:15:34;;;;;;;26.45;14.43;;;922.00;1100.80;;;;;;5134325;27;20031;-74
2021/08/08 11:18:00;;;;;;;27.33;14.30;;;922.00;1126.40;;;;;;5131237;27;20033;-78
2021/08/08 11:20:27;;;;;;;25.40;13.48;;;922.00;1126.40;;;;;;5148694;27;20019;-76
2021/08/08 11:22:58;;;;;;;25.58;13.57;;;922.00;1126.40;;;;;;5158375;27;20091;-75
2021/08/08 11:25:24;;;;;;;25.65;14.98;;;922.00;1126.40;;;;;;5106847;27;20051;-76
2021/08/08 11:27:54;;;;;;;25.90;13.90;;;922.00;1075.20;;;;;;5122712;27;20051;-76
2021/08/08 11:30:20;;;;;;;23.80;14.13;;;922.20;1075.20;;;;;;5135337;27;20041;-76
2021/08/08 11:32:50;;;;;;;19.33;12.45;;;922.30;1100.80;;;;;;5124462;27;20046;-75
2021/08/08 11:35:18;;;;;;;24.45;12.25;;;922.40;1049.60;;;;;;5133847;27;20621;-77
2021/08/08 11:37:46;;;;;;;22.23;13.13;;;922.20;1100.80;;;;;;5125508;27;20423;-75
2021/08/08 11:40:16;;;;;;;23.52;11.80;;;922.10;1100.80;;;;;;5126777;27;20058;-75
2021/08/08 11:42:42;;;;;;;24.17;13.00;;;922.30;1075.20;;;;;;5126488;27;20383;-75
2021/08/08 11:45:09;;;;;;;21.20;12.13;;;922.40;1049.60;;;;;;5130902;27;20026;-75
2021/08/08 11:47:34;;;;;;;16.75;9.73;;;922.50;1100.80;;;;;;5128615;27;20073;-75
2021/08/08 11:50:00;;;;;;;18.27;9.57;;;922.20;1049.60;;;;;;5131152;27;20023;-75
2021/08/08 11:52:26;;;;;;;21.38;11.60;;;922.20;1024.00;;;;;;5128413;27;20019;-75
2021/08/08 11:55:04;;;;;;;20.77;11.15;;;922.30;1100.80;;;;;;5128483;27;20072;-75
2021/08/08 11:57:33;;;;;;;18.23;10.57;;;947.20;1024.00;;;;;;5109939;27;20031;-75
2021/08/08 11:59:59;;;;;;;20.05;10.40;;;947.20;1049.60;;;;;;5123759;27;20047;-75
2021/08/08 12:02:27;;;;;;;24.33;11.15;;;947.20;1024.00;;;;;;5106075;27;20027;-75
2021/08/08 12:04:54;;;;;;;14.77;9.43;;;922.50;1100.80;;;;;;5107050;27;20492;-75
2021/08/08 12:07:22;;;;;;;28.00;13.23;;;947.30;1049.60;;;;;;5122783;27;20015;-75
2021/08/08 12:09:50;;;;;;;21.80;11.07;;;922.50;1024.00;;;;;;5108560;27;20102;-75